Kennedy — PB7633 — position and weather

sailwx.info

Track history (hours):
 
Tides and Currents Weather Stations Pressure Air Temp Water Temp Dewpoint Dewpoint Depression Visibility Wind Speed Wind Dir Waves Ship Positions

Kennedy

Last reported at 2014-Aug-28 12:23 UTC. Time now 2014-Sep-01 23:41 UTC.
Position N 51°31' E 000°09'.

Length 15 m.

Type: Sailing vessel. MMSI: 245144000.

Date/timePositionNaut miles runAvg speedWind from/ knotsBaromVisibWave heightAir tempDewpointWater temp
2014-Aug-28 12:23N 51°31' E 000°09'6 7.5
2014-Aug-28 11:33N 51°28' E 000°17'6 6.4
2014-Aug-28 10:33N 51°29' E 000°28'7 7.3
2014-Aug-28 09:33N 51°30' E 000°39'14 1.2
2014-Aug-27 21:31N 51°30' E 001°01'7 7.7
2014-Aug-27 20:32N 51°29' E 001°13'7 7.2
2014-Aug-27 19:33N 51°29' E 001°25'7 6.7
2014-Aug-27 18:33N 51°31' E 001°35'7 6.6
2014-Aug-27 17:33N 51°33' E 001°46'7 5.9
2014-Aug-27 16:18N 51°36' E 001°56'79 6.7
2014-Aug-27 04:33N 51°51' E 004°02'2 1.9
2014-Aug-27 03:33N 51°49' E 004°04'1 1.4
2014-Aug-27 02:33N 51°49' E 004°06'0 0.0
2014-Aug-27 01:33N 51°49' E 004°06'0 0.0
2014-Aug-27 00:33N 51°49' E 004°06'0 0.0
2014-Aug-26 23:33N 51°49' E 004°06'0 0.0
2014-Aug-26 22:27N 51°49' E 004°06'0 0.0
2014-Aug-26 21:30N 51°49' E 004°06'0 0.0
2014-Aug-26 20:33N 51°49' E 004°06'0 0.0
2014-Aug-26 19:33N 51°49' E 004°06'0 0.0
2014-Aug-26 18:33N 51°49' E 004°06'5 5.4
2014-Aug-26 17:33N 51°47' E 004°14'8 2.5
2014-Aug-26 14:30N 51°54' E 004°20'6 6.2
2014-Aug-26 13:33N 51°55' E 004°29'0 0.3
2014-Aug-26 12:33N 51°55' E 004°30'0 0.0
2014-Aug-26 11:31N 51°55' E 004°30'0 0.0
2014-Aug-26 10:28N 51°55' E 004°30'0 0.0
2014-Aug-26 09:31N 51°55' E 004°30'0 0.0
2014-Aug-26 08:31N 51°55' E 004°30'0 0.1
2014-Aug-26 07:33N 51°55' E 004°30'0 0.0
2014-Aug-26 06:33N 51°55' E 004°30'0 0.0
2014-Aug-26 05:33N 51°55' E 004°30'0 0.0
2014-Aug-26 04:31N 51°55' E 004°30'0 0.0
2014-Aug-26 03:31N 51°55' E 004°30'0 0.0
2014-Aug-26 02:31N 51°55' E 004°30'0 0.0
2014-Aug-26 01:31N 51°55' E 004°30'0 0.0
2014-Aug-26 00:31N 51°55' E 004°30'0 0.0
2014-Aug-25 23:31N 51°55' E 004°30'0 0.0
2014-Aug-25 22:28N 51°55' E 004°30'0 0.0
2014-Aug-25 21:31N 51°55' E 004°30'0 0.0
2014-Aug-25 20:31N 51°55' E 004°30'0 0.0
2014-Aug-25 19:31N 51°55' E 004°30'0 0.0
2014-Aug-25 18:31N 51°55' E 004°30'0 0.0
2014-Aug-25 17:28N 51°55' E 004°30'0 0.0
2014-Aug-25 16:31N 51°55' E 004°30'0 0.0
2014-Aug-25 15:31N 51°55' E 004°30'0 0.0
2014-Aug-25 14:25N 51°55' E 004°30'0 0.0
2014-Aug-25 13:31N 51°55' E 004°30'0 0.0
2014-Aug-25 12:31N 51°55' E 004°30'0 0.0
2014-Aug-25 11:31N 51°55' E 004°30'0 0.0
2014-Aug-25 10:31N 51°55' E 004°30'0 0.0
2014-Aug-25 09:31N 51°55' E 004°30'0 0.0
2014-Aug-25 08:31N 51°55' E 004°30'0 0.0
2014-Aug-25 07:31N 51°55' E 004°30'0 0.0
2014-Aug-25 06:31N 51°55' E 004°30'0 0.0
2014-Aug-25 05:31N 51°55' E 004°30'0 0.0
2014-Aug-25 04:31N 51°55' E 004°30'0 0.0
2014-Aug-25 03:28N 51°55' E 004°30'0 0.0
2014-Aug-25 02:31N 51°55' E 004°30'0 0.0
2014-Aug-25 01:28N 51°55' E 004°30'0 0.0
2014-Aug-25 00:31N 51°55' E 004°30'0 0.0
2014-Aug-24 23:31N 51°55' E 004°30'0 0.0
2014-Aug-24 22:31N 51°55' E 004°30'0 0.0
2014-Aug-24 21:31N 51°55' E 004°30'0 0.0
2014-Aug-24 20:28N 51°55' E 004°30'0 0.0
2014-Aug-24 19:31N 51°55' E 004°30'0 0.0
2014-Aug-24 18:31N 51°55' E 004°30'0 0.0
2014-Aug-24 17:25N 51°55' E 004°30'0 0.0
2014-Aug-24 16:31N 51°55' E 004°30'0 0.0
2014-Aug-24 15:31N 51°55' E 004°30'0 0.0
2014-Aug-24 14:31N 51°55' E 004°30'0 0.0
2014-Aug-24 13:31N 51°55' E 004°30'0 0.0
2014-Aug-24 12:32N 51°55' E 004°30'0 0.0
2014-Aug-24 11:32N 51°55' E 004°30'0 0.0
2014-Aug-24 10:32N 51°55' E 004°30'0 0.0
2014-Aug-24 09:32N 51°55' E 004°30'0 0.0
2014-Aug-24 08:32N 51°55' E 004°30'0 0.0
2014-Aug-24 07:29N 51°55' E 004°30'0 0.0
2014-Aug-24 06:32N 51°55' E 004°30'0 0.0
2014-Aug-24 05:32N 51°55' E 004°30'0 0.0
2014-Aug-24 04:32N 51°55' E 004°30'0 0.0
2014-Aug-24 03:32N 51°55' E 004°30'0 0.0
2014-Aug-24 02:32N 51°55' E 004°30'0 0.0
2014-Aug-24 01:32N 51°55' E 004°30'0 0.0
2014-Aug-24 00:32N 51°55' E 004°30'0 0.0
2014-Aug-23 23:32N 51°55' E 004°30'0 0.0
2014-Aug-23 22:32N 51°55' E 004°30'0 0.0
2014-Aug-23 21:32N 51°55' E 004°30'0 0.0
2014-Aug-23 20:32N 51°55' E 004°30'0 0.0
2014-Aug-23 19:32N 51°55' E 004°30'0 0.0
2014-Aug-23 03:31N 51°55' E 004°30'0 0.0
2014-Aug-23 02:31N 51°55' E 004°30'0 0.0
2014-Aug-23 01:31N 51°55' E 004°30'0 0.0
2014-Aug-23 00:31N 51°55' E 004°30'0 0.0
2014-Aug-22 23:31N 51°55' E 004°30'0 0.0
2014-Aug-22 22:31N 51°55' E 004°30'0 0.0
2014-Aug-22 21:31N 51°55' E 004°30'0 0.0
2014-Aug-22 20:31N 51°55' E 004°30'0 0.0
2014-Aug-22 19:31N 51°55' E 004°30'0 0.0
2014-Aug-22 18:31N 51°55' E 004°30'0 0.0
2014-Aug-22 17:31N 51°55' E 004°30'0 0.0
2014-Aug-22 16:31N 51°55' E 004°30'0 0.0
2014-Aug-22 15:31N 51°55' E 004°30'0 0.0
2014-Aug-22 14:31N 51°55' E 004°30'0 0.0
2014-Aug-22 13:31N 51°55' E 004°30'0 0.0
2014-Aug-22 12:31N 51°55' E 004°30'0 0.0
2014-Aug-22 11:31N 51°55' E 004°30'0 0.0
2014-Aug-22 10:31N 51°55' E 004°30'0 0.0
2014-Aug-22 09:28N 51°55' E 004°30'0 0.0
2014-Aug-22 08:31N 51°55' E 004°30'0 0.0
2014-Aug-22 07:31N 51°55' E 004°30'0 0.0
2014-Aug-22 06:25N 51°55' E 004°30'0 0.0
2014-Aug-22 05:31N 51°55' E 004°30'0 0.0
2014-Aug-22 04:31N 51°55' E 004°30'0 0.0
2014-Aug-22 03:31N 51°55' E 004°30'0 0.0
2014-Aug-22 02:31N 51°55' E 004°30'0 0.0
2014-Aug-22 01:28N 51°55' E 004°30'0 0.0
2014-Aug-22 00:31N 51°55' E 004°30'0 0.0
2014-Aug-21 23:28N 51°55' E 004°30'0 0.0
2014-Aug-21 22:31N 51°55' E 004°30'0 0.0
2014-Aug-21 21:31N 51°55' E 004°30'0 0.0
2014-Aug-21 20:22N 51°55' E 004°30'0 0.0
2014-Aug-21 19:31N 51°55' E 004°30'0 0.0
2014-Aug-21 18:31N 51°55' E 004°30'0 0.0
2014-Aug-21 17:31N 51°55' E 004°30'0 0.0
2014-Aug-21 16:31N 51°55' E 004°30'0 0.0
2014-Aug-21 15:28N 51°55' E 004°30'0 0.0
2014-Aug-21 14:31N 51°55' E 004°30'0 0.0
2014-Aug-21 13:28N 51°55' E 004°30'0 0.0
2014-Aug-21 12:31N 51°55' E 004°30'0 0.0
2014-Aug-21 11:31N 51°55' E 004°30'0 0.0
2014-Aug-21 10:31N 51°55' E 004°30'0 0.0
2014-Aug-21 09:31N 51°55' E 004°30'0 0.0
2014-Aug-21 08:31N 51°55' E 004°30'0 0.0
2014-Aug-21 07:31N 51°55' E 004°30'0 0.0
2014-Aug-21 06:31N 51°55' E 004°30'0 0.0
2014-Aug-21 05:16N 51°55' E 004°30'0 0.0
2014-Aug-21 04:31N 51°55' E 004°30'0 0.0
2014-Aug-21 03:31N 51°55' E 004°30'0 0.0
2014-Aug-21 02:31N 51°55' E 004°30'0 0.0
2014-Aug-21 01:31N 51°55' E 004°30'0 0.0
2014-Aug-21 00:28N 51°55' E 004°30'0 0.0
2014-Aug-20 23:28N 51°55' E 004°30'0 0.0
2014-Aug-20 22:31N 51°55' E 004°30'0 0.0
2014-Aug-20 21:31N 51°55' E 004°30'0 0.0
2014-Aug-20 20:31N 51°55' E 004°30'0 0.0
2014-Aug-20 19:31N 51°55' E 004°30'0 0.0
2014-Aug-20 18:31N 51°55' E 004°30'0 0.0
2014-Aug-20 17:31N 51°55' E 004°30'0 0.0
2014-Aug-20 16:31N 51°55' E 004°30'0 0.0
2014-Aug-20 15:31N 51°55' E 004°30'0 0.0
2014-Aug-20 14:31N 51°55' E 004°30'0 0.0
2014-Aug-20 13:31N 51°55' E 004°30'0 0.0
2014-Aug-20 12:31N 51°55' E 004°30'0 0.0
2014-Aug-20 11:31N 51°55' E 004°30'0 0.0
2014-Aug-20 10:31N 51°55' E 004°30'0 0.0
2014-Aug-20 09:28N 51°55' E 004°30'0 0.0
2014-Aug-20 08:31N 51°55' E 004°30'0 0.0
2014-Aug-20 07:31N 51°55' E 004°30'0 0.0
2014-Aug-20 06:31N 51°55' E 004°30'0 0.0
2014-Aug-20 05:31N 51°55' E 004°30'0 0.0
2014-Aug-20 04:29N 51°55' E 004°30'0 0.0
2014-Aug-20 03:31N 51°55' E 004°30'0 0.0
2014-Aug-20 02:32N 51°55' E 004°30'0 0.0
2014-Aug-20 01:28N 51°55' E 004°30'0 0.0
2014-Aug-20 00:31N 51°55' E 004°30'0 0.0
2014-Aug-19 23:26N 51°55' E 004°30'0 0.0
2014-Aug-19 22:31N 51°55' E 004°30'0 0.0
2014-Aug-19 21:32N 51°55' E 004°30'0 0.0
2014-Aug-19 20:26N 51°55' E 004°30'0 0.0
2014-Aug-19 19:32N 51°55' E 004°30'0 0.0
2014-Aug-19 18:32N 51°55' E 004°30'0 0.0
2014-Aug-19 17:32N 51°55' E 004°30'0 0.0
2014-Aug-19 16:32N 51°55' E 004°30'0 0.0
2014-Aug-19 12:14N 51°55' E 004°30'0 0.0
2014-Aug-19 11:29N 51°55' E 004°30'0 0.0
2014-Aug-19 10:26N 51°55' E 004°30'0 0.0
2014-Aug-19 09:32N 51°55' E 004°30'0 0.0
2014-Aug-19 08:29N 51°55' E 004°30'0 0.0
2014-Aug-19 07:32N 51°55' E 004°30'0 0.0
2014-Aug-19 06:32N 51°55' E 004°30'0 0.0
2014-Aug-19 05:32N 51°55' E 004°30'0 0.0
2014-Aug-19 04:32N 51°55' E 004°30'0 0.0
2014-Aug-19 03:32N 51°55' E 004°30'0 0.0
2014-Aug-19 02:32N 51°55' E 004°30'0 0.0
2014-Aug-19 01:32N 51°55' E 004°30'0 0.0
2014-Aug-19 00:32N 51°55' E 004°30'0 0.0
2014-Aug-18 23:32N 51°55' E 004°30'0 0.0
2014-Aug-18 22:32N 51°55' E 004°30'0 0.0
2014-Aug-18 21:32N 51°55' E 004°30'0 0.0
2014-Aug-18 20:32N 51°55' E 004°30'0 0.0
2014-Aug-18 19:32N 51°55' E 004°30'0 0.0
2014-Aug-18 18:29N 51°55' E 004°30'0 0.0
2014-Aug-18 17:29N 51°55' E 004°30'0 0.0
2014-Aug-18 16:32N 51°55' E 004°30'0 0.0
2014-Aug-18 15:32N 51°55' E 004°30'0 0.0
2014-Aug-18 14:32N 51°55' E 004°30'0 0.0
2014-Aug-18 13:29N 51°55' E 004°30'0 0.0
2014-Aug-18 12:32N 51°55' E 004°30'  
Track history (hours):
 
Tides and Currents Weather Stations Pressure Air Temp Water Temp Dewpoint Dewpoint Depression Visibility Wind Speed Wind Dir Waves Ship Positions

Kennedy

Last reported at 2014-Aug-28 12:23 UTC. Time now 2014-Sep-01 23:41 UTC.
Position N 51°31' E 000°09'.

Length 15 m.

Type: Sailing vessel. MMSI: 245144000.

Date/timePositionNaut miles runAvg speedWind from/ knotsBaromVisibWave heightAir tempDewpointWater temp
2014-Aug-28 12:23N 51°31' E 000°09'6 7.5
2014-Aug-28 11:33N 51°28' E 000°17'6 6.4
2014-Aug-28 10:33N 51°29' E 000°28'7 7.3
2014-Aug-28 09:33N 51°30' E 000°39'14 1.2
2014-Aug-27 21:31N 51°30' E 001°01'7 7.7
2014-Aug-27 20:32N 51°29' E 001°13'7 7.2
2014-Aug-27 19:33N 51°29' E 001°25'7 6.7
2014-Aug-27 18:33N 51°31' E 001°35'7 6.6
2014-Aug-27 17:33N 51°33' E 001°46'7 5.9
2014-Aug-27 16:18N 51°36' E 001°56'79 6.7
2014-Aug-27 04:33N 51°51' E 004°02'2 1.9
2014-Aug-27 03:33N 51°49' E 004°04'1 1.4
2014-Aug-27 02:33N 51°49' E 004°06'0 0.0
2014-Aug-27 01:33N 51°49' E 004°06'0 0.0
2014-Aug-27 00:33N 51°49' E 004°06'0 0.0
2014-Aug-26 23:33N 51°49' E 004°06'0 0.0
2014-Aug-26 22:27N 51°49' E 004°06'0 0.0
2014-Aug-26 21:30N 51°49' E 004°06'0 0.0
2014-Aug-26 20:33N 51°49' E 004°06'0 0.0
2014-Aug-26 19:33N 51°49' E 004°06'0 0.0
2014-Aug-26 18:33N 51°49' E 004°06'5 5.4
2014-Aug-26 17:33N 51°47' E 004°14'8 2.5
2014-Aug-26 14:30N 51°54' E 004°20'6 6.2
2014-Aug-26 13:33N 51°55' E 004°29'0 0.3
2014-Aug-26 12:33N 51°55' E 004°30'0 0.0
2014-Aug-26 11:31N 51°55' E 004°30'0 0.0
2014-Aug-26 10:28N 51°55' E 004°30'0 0.0
2014-Aug-26 09:31N 51°55' E 004°30'0 0.0
2014-Aug-26 08:31N 51°55' E 004°30'0 0.1
2014-Aug-26 07:33N 51°55' E 004°30'0 0.0
2014-Aug-26 06:33N 51°55' E 004°30'0 0.0
2014-Aug-26 05:33N 51°55' E 004°30'0 0.0
2014-Aug-26 04:31N 51°55' E 004°30'0 0.0
2014-Aug-26 03:31N 51°55' E 004°30'0 0.0
2014-Aug-26 02:31N 51°55' E 004°30'0 0.0
2014-Aug-26 01:31N 51°55' E 004°30'0 0.0
2014-Aug-26 00:31N 51°55' E 004°30'0 0.0
2014-Aug-25 23:31N 51°55' E 004°30'0 0.0
2014-Aug-25 22:28N 51°55' E 004°30'0 0.0
2014-Aug-25 21:31N 51°55' E 004°30'0 0.0
2014-Aug-25 20:31N 51°55' E 004°30'0 0.0
2014-Aug-25 19:31N 51°55' E 004°30'0 0.0
2014-Aug-25 18:31N 51°55' E 004°30'0 0.0
2014-Aug-25 17:28N 51°55' E 004°30'0 0.0
2014-Aug-25 16:31N 51°55' E 004°30'0 0.0
2014-Aug-25 15:31N 51°55' E 004°30'0 0.0
2014-Aug-25 14:25N 51°55' E 004°30'0 0.0
2014-Aug-25 13:31N 51°55' E 004°30'0 0.0
2014-Aug-25 12:31N 51°55' E 004°30'0 0.0
2014-Aug-25 11:31N 51°55' E 004°30'0 0.0
2014-Aug-25 10:31N 51°55' E 004°30'0 0.0
2014-Aug-25 09:31N 51°55' E 004°30'0 0.0
2014-Aug-25 08:31N 51°55' E 004°30'0 0.0
2014-Aug-25 07:31N 51°55' E 004°30'0 0.0
2014-Aug-25 06:31N 51°55' E 004°30'0 0.0
2014-Aug-25 05:31N 51°55' E 004°30'0 0.0
2014-Aug-25 04:31N 51°55' E 004°30'0 0.0
2014-Aug-25 03:28N 51°55' E 004°30'0 0.0
2014-Aug-25 02:31N 51°55' E 004°30'0 0.0
2014-Aug-25 01:28N 51°55' E 004°30'0 0.0
2014-Aug-25 00:31N 51°55' E 004°30'0 0.0
2014-Aug-24 23:31N 51°55' E 004°30'0 0.0
2014-Aug-24 22:31N 51°55' E 004°30'0 0.0
2014-Aug-24 21:31N 51°55' E 004°30'0 0.0
2014-Aug-24 20:28N 51°55' E 004°30'0 0.0
2014-Aug-24 19:31N 51°55' E 004°30'0 0.0
2014-Aug-24 18:31N 51°55' E 004°30'0 0.0
2014-Aug-24 17:25N 51°55' E 004°30'0 0.0
2014-Aug-24 16:31N 51°55' E 004°30'0 0.0
2014-Aug-24 15:31N 51°55' E 004°30'0 0.0
2014-Aug-24 14:31N 51°55' E 004°30'0 0.0
2014-Aug-24 13:31N 51°55' E 004°30'0 0.0
2014-Aug-24 12:32N 51°55' E 004°30'0 0.0
2014-Aug-24 11:32N 51°55' E 004°30'0 0.0
2014-Aug-24 10:32N 51°55' E 004°30'0 0.0
2014-Aug-24 09:32N 51°55' E 004°30'0 0.0
2014-Aug-24 08:32N 51°55' E 004°30'0 0.0
2014-Aug-24 07:29N 51°55' E 004°30'0 0.0
2014-Aug-24 06:32N 51°55' E 004°30'0 0.0
2014-Aug-24 05:32N 51°55' E 004°30'0 0.0
2014-Aug-24 04:32N 51°55' E 004°30'0 0.0
2014-Aug-24 03:32N 51°55' E 004°30'0 0.0
2014-Aug-24 02:32N 51°55' E 004°30'0 0.0
2014-Aug-24 01:32N 51°55' E 004°30'0 0.0
2014-Aug-24 00:32N 51°55' E 004°30'0 0.0
2014-Aug-23 23:32N 51°55' E 004°30'0 0.0
2014-Aug-23 22:32N 51°55' E 004°30'0 0.0
2014-Aug-23 21:32N 51°55' E 004°30'0 0.0
2014-Aug-23 20:32N 51°55' E 004°30'0 0.0
2014-Aug-23 19:32N 51°55' E 004°30'0 0.0
2014-Aug-23 03:31N 51°55' E 004°30'0 0.0
2014-Aug-23 02:31N 51°55' E 004°30'0 0.0
2014-Aug-23 01:31N 51°55' E 004°30'0 0.0
2014-Aug-23 00:31N 51°55' E 004°30'0 0.0
2014-Aug-22 23:31N 51°55' E 004°30'0 0.0
2014-Aug-22 22:31N 51°55' E 004°30'0 0.0
2014-Aug-22 21:31N 51°55' E 004°30'0 0.0
2014-Aug-22 20:31N 51°55' E 004°30'0 0.0
2014-Aug-22 19:31N 51°55' E 004°30'0 0.0
2014-Aug-22 18:31N 51°55' E 004°30'0 0.0
2014-Aug-22 17:31N 51°55' E 004°30'0 0.0
2014-Aug-22 16:31N 51°55' E 004°30'0 0.0
2014-Aug-22 15:31N 51°55' E 004°30'0 0.0
2014-Aug-22 14:31N 51°55' E 004°30'0 0.0
2014-Aug-22 13:31N 51°55' E 004°30'0 0.0
2014-Aug-22 12:31N 51°55' E 004°30'0 0.0
2014-Aug-22 11:31N 51°55' E 004°30'0 0.0
2014-Aug-22 10:31N 51°55' E 004°30'0 0.0
2014-Aug-22 09:28N 51°55' E 004°30'0 0.0
2014-Aug-22 08:31N 51°55' E 004°30'0 0.0
2014-Aug-22 07:31N 51°55' E 004°30'0 0.0
2014-Aug-22 06:25N 51°55' E 004°30'0 0.0
2014-Aug-22 05:31N 51°55' E 004°30'0 0.0
2014-Aug-22 04:31N 51°55' E 004°30'0 0.0
2014-Aug-22 03:31N 51°55' E 004°30'0 0.0
2014-Aug-22 02:31N 51°55' E 004°30'0 0.0
2014-Aug-22 01:28N 51°55' E 004°30'0 0.0
2014-Aug-22 00:31N 51°55' E 004°30'0 0.0
2014-Aug-21 23:28N 51°55' E 004°30'0 0.0
2014-Aug-21 22:31N 51°55' E 004°30'0 0.0
2014-Aug-21 21:31N 51°55' E 004°30'0 0.0
2014-Aug-21 20:22N 51°55' E 004°30'0 0.0
2014-Aug-21 19:31N 51°55' E 004°30'0 0.0
2014-Aug-21 18:31N 51°55' E 004°30'0 0.0
2014-Aug-21 17:31N 51°55' E 004°30'0 0.0
2014-Aug-21 16:31N 51°55' E 004°30'0 0.0
2014-Aug-21 15:28N 51°55' E 004°30'0 0.0
2014-Aug-21 14:31N 51°55' E 004°30'0 0.0
2014-Aug-21 13:28N 51°55' E 004°30'0 0.0
2014-Aug-21 12:31N 51°55' E 004°30'0 0.0
2014-Aug-21 11:31N 51°55' E 004°30'0 0.0
2014-Aug-21 10:31N 51°55' E 004°30'0 0.0
2014-Aug-21 09:31N 51°55' E 004°30'0 0.0
2014-Aug-21 08:31N 51°55' E 004°30'0 0.0
2014-Aug-21 07:31N 51°55' E 004°30'0 0.0
2014-Aug-21 06:31N 51°55' E 004°30'0 0.0
2014-Aug-21 05:16N 51°55' E 004°30'0 0.0
2014-Aug-21 04:31N 51°55' E 004°30'0 0.0
2014-Aug-21 03:31N 51°55' E 004°30'0 0.0
2014-Aug-21 02:31N 51°55' E 004°30'0 0.0
2014-Aug-21 01:31N 51°55' E 004°30'0 0.0
2014-Aug-21 00:28N 51°55' E 004°30'0 0.0
2014-Aug-20 23:28N 51°55' E 004°30'0 0.0
2014-Aug-20 22:31N 51°55' E 004°30'0 0.0
2014-Aug-20 21:31N 51°55' E 004°30'0 0.0
2014-Aug-20 20:31N 51°55' E 004°30'0 0.0
2014-Aug-20 19:31N 51°55' E 004°30'0 0.0
2014-Aug-20 18:31N 51°55' E 004°30'0 0.0
2014-Aug-20 17:31N 51°55' E 004°30'0 0.0
2014-Aug-20 16:31N 51°55' E 004°30'0 0.0
2014-Aug-20 15:31N 51°55' E 004°30'0 0.0
2014-Aug-20 14:31N 51°55' E 004°30'0 0.0
2014-Aug-20 13:31N 51°55' E 004°30'0 0.0
2014-Aug-20 12:31N 51°55' E 004°30'0 0.0
2014-Aug-20 11:31N 51°55' E 004°30'0 0.0
2014-Aug-20 10:31N 51°55' E 004°30'0 0.0
2014-Aug-20 09:28N 51°55' E 004°30'0 0.0
2014-Aug-20 08:31N 51°55' E 004°30'0 0.0
2014-Aug-20 07:31N 51°55' E 004°30'0 0.0
2014-Aug-20 06:31N 51°55' E 004°30'0 0.0
2014-Aug-20 05:31N 51°55' E 004°30'0 0.0
2014-Aug-20 04:29N 51°55' E 004°30'0 0.0
2014-Aug-20 03:31N 51°55' E 004°30'0 0.0
2014-Aug-20 02:32N 51°55' E 004°30'0 0.0
2014-Aug-20 01:28N 51°55' E 004°30'0 0.0
2014-Aug-20 00:31N 51°55' E 004°30'0 0.0
2014-Aug-19 23:26N 51°55' E 004°30'0 0.0
2014-Aug-19 22:31N 51°55' E 004°30'0 0.0
2014-Aug-19 21:32N 51°55' E 004°30'0 0.0
2014-Aug-19 20:26N 51°55' E 004°30'0 0.0
2014-Aug-19 19:32N 51°55' E 004°30'0 0.0
2014-Aug-19 18:32N 51°55' E 004°30'0 0.0
2014-Aug-19 17:32N 51°55' E 004°30'0 0.0
2014-Aug-19 16:32N 51°55' E 004°30'0 0.0
2014-Aug-19 12:14N 51°55' E 004°30'0 0.0
2014-Aug-19 11:29N 51°55' E 004°30'0 0.0
2014-Aug-19 10:26N 51°55' E 004°30'0 0.0
2014-Aug-19 09:32N 51°55' E 004°30'0 0.0
2014-Aug-19 08:29N 51°55' E 004°30'0 0.0
2014-Aug-19 07:32N 51°55' E 004°30'0 0.0
2014-Aug-19 06:32N 51°55' E 004°30'0 0.0
2014-Aug-19 05:32N 51°55' E 004°30'0 0.0
2014-Aug-19 04:32N 51°55' E 004°30'0 0.0
2014-Aug-19 03:32N 51°55' E 004°30'0 0.0
2014-Aug-19 02:32N 51°55' E 004°30'0 0.0
2014-Aug-19 01:32N 51°55' E 004°30'0 0.0
2014-Aug-19 00:32N 51°55' E 004°30'0 0.0
2014-Aug-18 23:32N 51°55' E 004°30'0 0.0
2014-Aug-18 22:32N 51°55' E 004°30'0 0.0
2014-Aug-18 21:32N 51°55' E 004°30'0 0.0
2014-Aug-18 20:32N 51°55' E 004°30'0 0.0
2014-Aug-18 19:32N 51°55' E 004°30'0 0.0
2014-Aug-18 18:29N 51°55' E 004°30'0 0.0
2014-Aug-18 17:29N 51°55' E 004°30'0 0.0
2014-Aug-18 16:32N 51°55' E 004°30'0 0.0
2014-Aug-18 15:32N 51°55' E 004°30'0 0.0
2014-Aug-18 14:32N 51°55' E 004°30'0 0.0
2014-Aug-18 13:29N 51°55' E 004°30'0 0.0
2014-Aug-18 12:32N 51°55' E 004°30'  

Dump ship's entire track history